createdAt,value
2022-11-12T00:00:55.544Z,6.18
2022-11-12T00:02:17.160Z,6.93
2022-11-12T00:03:39.073Z,7.90
2022-11-12T00:05:00.822Z,7.10
2022-11-12T00:06:22.406Z,7.80
2022-11-12T00:07:44.120Z,6.85
2022-11-12T00:09:05.738Z,6.32
2022-11-12T00:10:28.043Z,5.72
2022-11-12T00:11:50.039Z,6.22
2022-11-12T00:13:11.965Z,6.60
2022-11-12T00:14:33.768Z,6.90
2022-11-12T00:15:55.489Z,7.55
2022-11-12T00:17:17.330Z,6.80
2022-11-12T00:18:38.826Z,7.13
2022-11-12T00:20:00.646Z,6.72
2022-11-12T00:21:22.168Z,6.22
2022-11-12T00:22:43.883Z,6.72
2022-11-12T00:24:05.624Z,6.50
2022-11-12T00:25:27.072Z,6.20
2022-11-12T00:26:48.658Z,6.53
2022-11-12T00:28:11.385Z,7.63
2022-11-12T00:29:33.222Z,6.07
2022-11-12T00:30:54.887Z,6.85
2022-11-12T00:32:16.623Z,6.85
2022-11-12T00:33:43.422Z,7.07
2022-11-12T00:35:08.694Z,7.22
2022-11-12T00:36:32.903Z,6.68
2022-11-12T00:37:57.888Z,6.22
2022-11-12T00:39:19.510Z,6.07
2022-11-12T00:40:42.236Z,7.35
2022-11-12T00:42:04.260Z,6.55
2022-11-12T00:43:26.006Z,6.97
2022-11-12T00:44:47.580Z,6.75
2022-11-12T00:46:08.923Z,6.47
2022-11-12T00:47:30.427Z,6.25
2022-11-12T00:48:51.852Z,6.32
2022-11-12T00:50:13.400Z,6.03
2022-11-12T00:51:35.607Z,6.88
2022-11-12T00:52:57.331Z,5.45
2022-11-12T00:54:18.690Z,6.57
2022-11-12T00:55:40.192Z,6.85
2022-11-12T00:57:01.892Z,6.18
2022-11-12T00:58:23.860Z,6.20
2022-11-12T00:59:45.760Z,6.18
2022-11-12T01:01:15.223Z,6.32
2022-11-12T01:02:42.373Z,6.68
2022-11-12T01:04:05.416Z,5.78
2022-11-12T01:05:26.775Z,5.60
2022-11-12T01:06:48.176Z,5.95
2022-11-12T01:08:09.986Z,6.65
2022-11-12T01:09:31.698Z,6.90
2022-11-12T01:10:52.913Z,6.38
2022-11-12T01:12:14.324Z,6.50
2022-11-12T01:13:38.852Z,6.10
2022-11-12T01:15:06.928Z,5.88
2022-11-12T01:16:34.755Z,6.55
2022-11-12T01:17:56.479Z,5.95
2022-11-12T01:19:18.558Z,5.80
2022-11-12T01:20:40.209Z,6.47
2022-11-12T01:22:01.479Z,4.80
2022-11-12T01:23:23.060Z,6.03
2022-11-12T01:24:44.528Z,5.78
2022-11-12T01:26:13.139Z,5.78
2022-11-12T01:27:34.855Z,5.45
2022-11-12T01:28:57.392Z,5.30
2022-11-12T01:30:19.083Z,5.53
2022-11-12T01:31:40.685Z,6.07
2022-11-12T01:33:02.155Z,5.78
2022-11-12T01:34:23.716Z,6.65
2022-11-12T01:35:45.467Z,5.95
2022-11-12T01:37:06.988Z,5.60
2022-11-12T01:38:28.984Z,5.72
2022-11-12T01:39:50.607Z,6.15
2022-11-12T01:41:34.513Z,5.53
2022-11-12T01:42:56.076Z,6.88
2022-11-12T01:44:25.171Z,6.38
2022-11-12T01:45:51.056Z,5.97
2022-11-12T01:47:22.600Z,6.05
2022-11-12T01:48:59.855Z,5.68
2022-11-12T01:50:30.794Z,6.40
2022-11-12T01:51:56.508Z,5.53
2022-11-12T01:53:19.285Z,5.53
2022-11-12T01:54:42.511Z,5.80
2022-11-12T01:56:05.768Z,4.72
2022-11-12T01:57:36.345Z,5.20
2022-11-12T01:59:12.103Z,5.30
2022-11-12T02:00:33.561Z,5.75
2022-11-12T02:01:55.012Z,5.25
2022-11-12T02:03:21.850Z,4.70
2022-11-12T02:04:43.567Z,5.43
2022-11-12T02:06:13.619Z,6.18
2022-11-12T02:07:39.019Z,5.65
2022-11-12T02:09:01.034Z,5.82
2022-11-12T02:10:23.010Z,5.15
2022-11-12T02:11:44.539Z,5.80
2022-11-12T02:13:24.566Z,6.43
2022-11-12T02:14:46.422Z,5.70
2022-11-12T02:16:10.598Z,5.28
2022-11-12T02:17:32.191Z,5.68
2022-11-12T02:18:53.812Z,5.95
2022-11-12T02:20:16.531Z,5.72
2022-11-12T02:21:39.258Z,6.03
2022-11-12T02:23:00.877Z,5.35
2022-11-12T02:24:21.973Z,5.78
2022-11-12T02:25:43.485Z,6.47
2022-11-12T02:27:06.882Z,5.85
2022-11-12T02:28:31.213Z,5.82
2022-11-12T02:29:52.621Z,6.50
2022-11-12T02:31:14.139Z,6.57
2022-11-12T02:32:35.638Z,6.63
2022-11-12T02:33:57.494Z,7.10
2022-11-12T02:35:18.761Z,6.53
2022-11-12T02:36:40.534Z,7.47
2022-11-12T02:38:02.563Z,6.35
2022-11-12T02:39:23.968Z,6.45
2022-11-12T02:40:45.534Z,6.90
2022-11-12T02:42:07.563Z,5.65
2022-11-12T02:43:29.502Z,6.88
2022-11-12T02:44:51.242Z,6.72
2022-11-12T02:46:13.244Z,7.32
2022-11-12T02:47:34.809Z,7.05
2022-11-12T02:48:56.520Z,7.68
2022-11-12T02:50:18.746Z,6.95
2022-11-12T02:51:40.249Z,7.25
2022-11-12T02:53:01.603Z,7.57
2022-11-12T02:54:23.191Z,8.13
2022-11-12T02:55:44.778Z,7.72
2022-11-12T02:57:06.206Z,7.05
2022-11-12T02:58:29.374Z,6.88
2022-11-12T02:59:52.181Z,7.10
2022-11-12T03:01:13.720Z,7.03
2022-11-12T03:02:35.401Z,7.45
2022-11-12T03:03:57.271Z,7.22
2022-11-12T03:05:19.205Z,6.82
2022-11-12T03:06:41.006Z,7.60
2022-11-12T03:08:07.549Z,7.95
2022-11-12T03:09:29.001Z,7.28
2022-11-12T03:10:50.957Z,8.68
2022-11-12T03:12:12.458Z,7.05
2022-11-12T03:13:34.122Z,7.22
2022-11-12T03:14:55.614Z,7.88
2022-11-12T03:16:17.343Z,8.00
2022-11-12T03:17:39.001Z,8.52
2022-11-12T03:19:00.204Z,8.73
2022-11-12T03:20:21.617Z,8.07
2022-11-12T03:21:43.122Z,7.68
2022-11-12T03:23:11.014Z,8.10
2022-11-12T03:24:32.878Z,7.43
2022-11-12T03:25:54.343Z,7.40
2022-11-12T03:27:17.112Z,8.10
2022-11-12T03:28:38.778Z,7.40
2022-11-12T03:30:00.436Z,7.93
2022-11-12T03:31:21.716Z,7.47
2022-11-12T03:32:43.070Z,8.82
2022-11-12T03:34:04.660Z,7.95
2022-11-12T03:35:26.898Z,7.53
2022-11-12T03:36:48.531Z,7.78
2022-11-12T03:38:10.132Z,8.30
2022-11-12T03:39:31.556Z,8.00
2022-11-12T03:40:53.519Z,7.47
2022-11-12T03:42:14.842Z,7.88
2022-11-12T03:43:36.414Z,8.23
2022-11-12T03:44:57.993Z,8.20
2022-11-12T03:46:19.194Z,8.60
2022-11-12T03:47:47.346Z,8.45
2022-11-12T03:49:08.664Z,8.43
2022-11-12T03:50:30.715Z,8.02
2022-11-12T03:51:52.277Z,7.47
2022-11-12T03:53:13.890Z,7.95
2022-11-12T03:54:35.280Z,7.57
2022-11-12T03:55:56.989Z,8.25
2022-11-12T03:57:18.831Z,8.50
2022-11-12T03:58:40.396Z,8.48
2022-11-12T04:00:02.060Z,8.45
2022-11-12T04:01:23.753Z,7.97
2022-11-12T04:02:45.525Z,7.82
2022-11-12T04:04:07.169Z,8.45
2022-11-12T04:05:47.641Z,8.68
2022-11-12T04:07:28.034Z,8.27
2022-11-12T04:08:49.410Z,8.75
2022-11-12T04:10:11.122Z,8.85
2022-11-12T04:11:32.596Z,8.23
2022-11-12T04:13:12.847Z,8.10
2022-11-12T04:14:34.692Z,9.38
2022-11-12T04:16:30.253Z,8.60
2022-11-12T04:18:10.169Z,8.95
2022-11-12T04:19:50.291Z,8.60
2022-11-12T04:21:33.769Z,9.30
2022-11-12T04:22:55.715Z,9.02
2022-11-12T04:24:55.197Z,8.60
2022-11-12T04:26:25.671Z,8.82
2022-11-12T04:27:47.037Z,8.68
2022-11-12T04:29:27.636Z,9.45
2022-11-12T04:30:49.401Z,8.68
2022-11-12T04:32:10.999Z,9.75
2022-11-12T04:33:32.873Z,9.32
2022-11-12T04:34:54.693Z,10.40
2022-11-12T04:36:16.346Z,10.80
2022-11-12T04:37:47.093Z,10.52
2022-11-12T04:39:08.730Z,9.55
2022-11-12T04:40:49.293Z,10.90
2022-11-12T04:42:30.452Z,10.05
2022-11-12T04:45:31.947Z,9.70
2022-11-12T04:46:53.703Z,10.45
2022-11-12T04:48:15.607Z,9.20
2022-11-12T04:49:37.016Z,10.98
2022-11-12T04:51:28.746Z,12.27
2022-11-12T04:52:50.420Z,10.30
2022-11-12T04:54:12.167Z,10.48
2022-11-12T04:55:33.750Z,10.35
2022-11-12T04:56:55.225Z,10.88
2022-11-12T04:58:16.655Z,12.10
2022-11-12T04:59:38.151Z,12.65
2022-11-12T05:00:59.641Z,11.10
2022-11-12T05:02:21.708Z,12.35
2022-11-12T05:03:43.359Z,11.43
2022-11-12T05:05:05.267Z,11.80
2022-11-12T05:06:45.621Z,12.07
2022-11-12T05:08:07.063Z,11.98
2022-11-12T05:09:29.772Z,12.63
2022-11-12T05:10:51.351Z,11.55
2022-11-12T05:12:13.149Z,11.85
2022-11-12T05:13:34.341Z,11.50
2022-11-12T05:14:55.969Z,11.80
2022-11-12T05:16:17.799Z,12.95
2022-11-12T05:17:46.183Z,12.45
2022-11-12T05:19:07.877Z,12.68
2022-11-12T05:20:29.544Z,11.50
2022-11-12T05:22:06.391Z,12.90
2022-11-12T05:23:27.665Z,11.20
2022-11-12T05:24:49.272Z,12.55
2022-11-12T05:26:11.069Z,13.10
2022-11-12T05:27:32.837Z,12.57
2022-11-12T05:28:54.850Z,12.57
2022-11-12T05:30:16.562Z,13.48
2022-11-12T05:31:38.214Z,12.65
2022-11-12T05:32:59.462Z,13.25
2022-11-12T05:34:23.047Z,13.77
2022-11-12T05:35:44.645Z,13.07
2022-11-12T05:37:08.116Z,12.23
2022-11-12T05:38:29.674Z,13.50
2022-11-12T05:39:51.604Z,13.50
2022-11-12T05:41:17.289Z,13.55
2022-11-12T05:42:41.392Z,12.10
2022-11-12T05:44:03.388Z,12.20
2022-11-12T05:45:24.676Z,11.85
2022-11-12T05:46:46.921Z,13.23
2022-11-12T05:48:08.406Z,12.98
2022-11-12T05:49:30.277Z,12.45
2022-11-12T05:52:37.757Z,12.73
2022-11-12T05:53:59.572Z,11.75
2022-11-12T05:55:20.948Z,11.85
2022-11-12T05:56:42.830Z,12.63
2022-11-12T05:58:07.737Z,12.70
2022-11-12T05:59:29.046Z,10.65
2022-11-12T06:00:50.634Z,11.55
2022-11-12T06:02:12.342Z,12.38
2022-11-12T06:03:34.299Z,11.02
2022-11-12T06:04:56.001Z,12.15
2022-11-12T06:06:17.751Z,11.80
2022-11-12T06:07:39.367Z,11.20
2022-11-12T06:09:00.922Z,11.85
2022-11-12T06:10:22.370Z,11.40
2022-11-12T06:11:43.886Z,11.90
2022-11-12T06:13:05.780Z,12.25
2022-11-12T06:14:27.166Z,11.68
2022-11-12T06:15:48.575Z,12.55
2022-11-12T06:17:10.256Z,11.32
2022-11-12T06:18:32.272Z,11.65
2022-11-12T06:19:54.054Z,11.68
2022-11-12T06:21:24.732Z,11.02
2022-11-12T06:22:46.375Z,10.65
2022-11-12T06:24:08.381Z,11.80
2022-11-12T06:25:30.243Z,10.95
2022-11-12T06:26:51.748Z,12.10
2022-11-12T06:28:13.118Z,11.07
2022-11-12T06:29:34.849Z,10.88
2022-11-12T06:30:56.753Z,11.57
2022-11-12T06:32:18.443Z,11.20
2022-11-12T06:33:39.828Z,11.35
2022-11-12T06:35:02.148Z,11.30
2022-11-12T06:36:23.450Z,12.15
2022-11-12T06:37:49.373Z,12.20
2022-11-12T06:39:11.735Z,12.15
2022-11-12T06:40:33.089Z,11.82
2022-11-12T06:41:55.061Z,11.68
2022-11-12T06:43:17.148Z,12.13
2022-11-12T06:44:38.495Z,12.68
2022-11-12T06:46:15.447Z,11.35
2022-11-12T06:47:36.967Z,11.30
2022-11-12T06:48:58.363Z,11.32
2022-11-12T06:50:20.148Z,11.45
2022-11-12T06:51:42.243Z,12.80
2022-11-12T06:53:03.932Z,12.40
2022-11-12T06:54:26.601Z,12.02
2022-11-12T06:55:48.192Z,12.80
2022-11-12T06:57:10.416Z,13.15
2022-11-12T06:58:32.671Z,12.57
2022-11-12T06:59:55.686Z,12.77
2022-11-12T07:01:18.505Z,11.77
2022-11-12T07:02:40.249Z,12.13
2022-11-12T07:04:03.123Z,11.45
2022-11-12T07:05:24.710Z,11.32
2022-11-12T07:06:46.231Z,12.20
2022-11-12T07:08:08.215Z,12.73
2022-11-12T07:09:29.651Z,12.82
2022-11-12T07:10:59.951Z,12.32
2022-11-12T07:12:21.496Z,12.73
2022-11-12T07:13:47.098Z,11.13
2022-11-12T07:15:09.461Z,11.05
2022-11-12T07:16:31.196Z,12.73
2022-11-12T07:17:52.997Z,12.18
2022-11-12T07:19:14.381Z,12.88
2022-11-12T07:20:35.734Z,13.02
2022-11-12T07:21:57.062Z,12.93
2022-11-12T07:23:18.447Z,13.55
2022-11-12T07:24:39.886Z,13.25
2022-11-12T07:26:06.628Z,13.30
2022-11-12T07:27:31.111Z,13.30
2022-11-12T07:28:53.483Z,13.80
2022-11-12T07:30:15.707Z,13.07
2022-11-12T07:31:37.076Z,13.95
2022-11-12T07:32:58.940Z,12.98
2022-11-12T07:34:20.432Z,13.10
2022-11-12T07:35:42.218Z,15.30
2022-11-12T07:37:04.027Z,13.88
2022-11-12T07:38:25.829Z,13.57
2022-11-12T07:39:47.617Z,14.35
2022-11-12T07:41:22.388Z,12.90
2022-11-12T07:42:44.098Z,13.15
2022-11-12T07:44:05.771Z,13.77
2022-11-12T07:45:27.172Z,13.45
2022-11-12T07:46:48.504Z,13.23
2022-11-12T07:48:10.049Z,14.50
2022-11-12T07:49:31.203Z,14.70
2022-11-12T07:50:52.779Z,14.77
2022-11-12T07:52:14.319Z,15.63
2022-11-12T07:53:35.836Z,14.13
2022-11-12T07:54:57.561Z,13.88
2022-11-12T07:56:23.318Z,14.50
2022-11-12T07:57:45.124Z,14.93
2022-11-12T07:59:08.028Z,16.88
2022-11-12T08:00:29.752Z,14.70
2022-11-12T08:01:51.212Z,14.95
2022-11-12T08:03:12.729Z,15.02
2022-11-12T08:04:34.880Z,13.07
2022-11-12T08:05:56.467Z,14.85
2022-11-12T08:07:18.643Z,14.70
2022-11-12T08:08:40.410Z,15.00
2022-11-12T08:10:01.799Z,14.32
2022-11-12T08:11:24.202Z,14.35
2022-11-12T08:12:45.483Z,15.23
2022-11-12T08:14:07.129Z,15.70
2022-11-12T08:15:28.656Z,15.27
2022-11-12T08:16:50.159Z,14.95
2022-11-12T08:18:11.796Z,14.35
2022-11-12T08:19:33.057Z,14.68
2022-11-12T08:21:04.828Z,15.60
2022-11-12T08:22:26.688Z,15.52
2022-11-12T08:23:48.350Z,15.32
2022-11-12T08:25:10.276Z,15.38
2022-11-12T08:26:31.399Z,15.18
2022-11-12T08:28:00.644Z,15.13
2022-11-12T08:29:23.491Z,14.75
2022-11-12T08:30:45.213Z,14.65
2022-11-12T08:32:07.124Z,14.73
2022-11-12T08:33:28.856Z,14.57
2022-11-12T08:34:50.499Z,14.35
2022-11-12T08:36:15.144Z,13.43
2022-11-12T08:37:36.835Z,14.30
2022-11-12T08:38:58.248Z,14.13
2022-11-12T08:40:19.868Z,13.55
2022-11-12T08:41:41.623Z,13.93
2022-11-12T08:43:06.703Z,14.80
2022-11-12T08:44:28.037Z,15.38
2022-11-12T08:45:50.244Z,12.73
2022-11-12T08:47:11.988Z,15.43
2022-11-12T08:48:34.556Z,14.48
2022-11-12T08:49:56.195Z,14.27
2022-11-12T08:51:17.695Z,13.95
2022-11-12T08:52:39.053Z,14.05
2022-11-12T08:54:00.882Z,12.77
2022-11-12T08:55:22.442Z,12.93
2022-11-12T08:56:43.840Z,14.32
2022-11-12T08:58:05.796Z,13.27
2022-11-12T08:59:27.495Z,15.70
2022-11-12T09:00:50.954Z,13.60
2022-11-12T09:02:14.170Z,13.00
2022-11-12T09:03:35.502Z,14.10
2022-11-12T09:04:56.825Z,14.27
2022-11-12T09:06:18.552Z,13.43
2022-11-12T09:07:55.562Z,12.18
2022-11-12T09:09:17.166Z,12.13
2022-11-12T09:10:39.772Z,12.43
2022-11-12T09:12:06.196Z,12.27
2022-11-12T09:13:32.205Z,14.35
2022-11-12T09:14:59.565Z,14.30
2022-11-12T09:16:31.056Z,13.32
2022-11-12T09:18:02.296Z,11.80
2022-11-12T09:22:07.772Z,11.60
2022-11-12T09:23:29.844Z,12.18
2022-11-12T09:24:51.040Z,13.10
2022-11-12T09:26:12.519Z,13.50
2022-11-12T09:27:34.005Z,12.48
2022-11-12T09:28:55.349Z,13.07
2022-11-12T09:30:17.275Z,12.05
2022-11-12T09:31:38.509Z,12.30
2022-11-12T09:32:59.940Z,12.25
2022-11-12T09:34:21.525Z,11.45
2022-11-12T09:35:43.841Z,12.48
2022-11-12T09:37:05.232Z,12.88
2022-11-12T09:38:27.145Z,13.82
2022-11-12T09:39:49.065Z,14.00
2022-11-12T09:41:18.650Z,14.65
2022-11-12T09:42:41.729Z,15.85
2022-11-12T09:44:11.266Z,13.73
2022-11-12T09:45:33.424Z,12.20
2022-11-12T09:47:02.876Z,12.10
2022-11-12T09:48:41.864Z,11.55
2022-11-12T09:50:16.274Z,12.00
2022-11-12T09:51:51.640Z,10.68
2022-11-12T09:53:59.389Z,10.45
2022-11-12T09:55:34.047Z,9.90
2022-11-12T09:56:55.377Z,9.63
2022-11-12T09:58:19.684Z,9.98
2022-11-12T09:59:43.050Z,10.85
2022-11-12T10:01:18.429Z,10.82
2022-11-12T10:03:14.543Z,10.93
2022-11-12T10:05:05.356Z,11.27
2022-11-12T10:06:39.909Z,10.85
2022-11-12T10:08:26.190Z,10.45
2022-11-12T10:10:17.943Z,10.45
2022-11-12T10:12:32.533Z,10.40
2022-11-12T10:14:23.343Z,10.73
2022-11-12T10:16:32.444Z,11.68
2022-11-12T10:18:28.582Z,11.80
2022-11-12T10:20:19.242Z,11.35
2022-11-12T10:22:04.751Z,12.07
2022-11-12T10:23:36.788Z,11.00
2022-11-12T10:25:11.381Z,12.40
2022-11-12T10:26:34.343Z,12.32
2022-11-12T10:27:56.811Z,12.20
2022-11-12T10:29:27.589Z,12.85
2022-11-12T10:30:49.351Z,12.02
2022-11-12T10:32:15.944Z,13.00
2022-11-12T10:33:37.324Z,12.85
2022-11-12T10:34:58.978Z,11.30
2022-11-12T10:36:33.865Z,13.57
2022-11-12T10:38:06.050Z,14.13
2022-11-12T10:39:39.257Z,10.70
2022-11-12T10:41:27.018Z,11.13
2022-11-12T10:43:03.116Z,9.63
2022-11-12T10:44:27.817Z,9.80
2022-11-12T10:45:51.166Z,9.98
2022-11-12T10:47:43.065Z,9.88
2022-11-12T10:49:16.985Z,8.80
2022-11-12T10:50:43.298Z,9.95
2022-11-12T10:52:04.988Z,9.93
2022-11-12T10:53:37.931Z,11.88
2022-11-12T10:55:18.036Z,11.07
2022-11-12T10:56:39.916Z,11.43
2022-11-12T10:58:11.561Z,11.65
2022-11-12T10:59:33.768Z,11.13
2022-11-12T11:01:12.269Z,11.00
2022-11-12T11:02:33.919Z,9.73
2022-11-12T11:03:58.233Z,10.95
2022-11-12T11:05:37.460Z,10.70
2022-11-12T11:07:23.206Z,8.95
2022-11-12T11:08:49.445Z,9.25
2022-11-12T11:10:32.098Z,9.70
2022-11-12T11:11:54.348Z,8.65
2022-11-12T11:13:26.179Z,8.82
2022-11-12T11:14:49.322Z,9.18
2022-11-12T11:16:21.094Z,8.90
2022-11-12T11:17:42.823Z,8.00
2022-11-12T11:19:06.429Z,8.15
2022-11-12T11:20:47.620Z,7.97
2022-11-12T11:22:38.321Z,7.85
2022-11-12T11:24:21.591Z,8.45
2022-11-12T11:25:43.772Z,9.02
2022-11-12T11:27:34.250Z,8.48
2022-11-12T11:29:17.019Z,8.02
2022-11-12T11:30:54.561Z,8.13
2022-11-12T11:32:52.614Z,8.48
2022-11-12T11:34:35.579Z,6.68
2022-11-12T11:36:44.310Z,8.43
2022-11-12T11:38:49.620Z,7.65
2022-11-12T11:40:29.102Z,7.63
2022-11-12T11:42:07.442Z,7.55
2022-11-12T11:44:22.202Z,7.22
2022-11-12T11:45:59.724Z,6.90
2022-11-12T11:47:38.620Z,8.40
2022-11-12T11:49:47.360Z,7.57
2022-11-12T11:51:36.092Z,7.63
2022-11-12T11:53:26.635Z,7.72
2022-11-12T11:55:36.429Z,8.50
2022-11-12T11:57:04.056Z,8.98
2022-11-12T11:58:44.391Z,11.07
2022-11-12T12:00:23.841Z,8.50
2022-11-12T12:02:11.222Z,9.07
2022-11-12T12:03:57.924Z,8.15
2022-11-12T12:05:55.586Z,7.93
2022-11-12T12:08:22.092Z,7.93
2022-11-12T12:09:58.904Z,7.70
2022-11-12T12:11:20.057Z,8.07
2022-11-12T12:13:09.585Z,7.70
2022-11-12T12:14:43.389Z,8.10
2022-11-12T12:16:07.810Z,10.05
2022-11-12T12:17:53.864Z,9.60
2022-11-12T12:19:27.384Z,8.02
2022-11-12T12:20:59.346Z,8.38
2022-11-12T12:22:35.999Z,8.70
2022-11-12T12:24:21.379Z,8.70
2022-11-12T12:25:46.367Z,10.15
2022-11-12T12:27:32.257Z,10.02
2022-11-12T12:29:12.990Z,10.63
2022-11-12T12:30:41.206Z,8.48
2022-11-12T12:32:24.322Z,8.82
2022-11-12T12:33:56.729Z,9.20
2022-11-12T12:35:52.733Z,8.13
2022-11-12T12:37:35.806Z,8.35
2022-11-12T12:39:25.260Z,8.65
2022-11-12T12:41:04.079Z,8.02
2022-11-12T12:42:49.488Z,9.73
2022-11-12T12:44:11.695Z,8.48
2022-11-12T12:45:46.593Z,7.85
2022-11-12T12:47:13.416Z,7.85
2022-11-12T12:48:41.863Z,7.18
2022-11-12T12:50:13.297Z,7.03
2022-11-12T12:51:35.708Z,7.57
2022-11-12T12:53:06.896Z,6.78
2022-11-12T12:54:42.931Z,7.30
2022-11-12T12:56:32.230Z,6.80
2022-11-12T12:57:59.703Z,6.32
2022-11-12T12:59:24.140Z,6.20
2022-11-12T13:01:22.636Z,5.90
2022-11-12T13:02:45.116Z,6.70
2022-11-12T13:04:10.446Z,6.88
2022-11-12T13:05:37.601Z,5.85
2022-11-12T13:06:59.236Z,6.72
2022-11-12T13:08:25.887Z,6.20
2022-11-12T13:09:48.581Z,6.15
2022-11-12T13:11:10.336Z,7.80
2022-11-12T13:13:02.853Z,8.57
2022-11-12T13:14:36.699Z,8.98
2022-11-12T13:15:59.822Z,11.07
2022-11-12T13:17:49.587Z,10.60
2022-11-12T13:19:11.177Z,10.43
2022-11-12T13:20:39.782Z,10.15
2022-11-12T13:22:19.816Z,9.60
2022-11-12T13:24:09.078Z,10.10
2022-11-12T13:25:32.351Z,8.85
2022-11-12T13:26:57.214Z,8.95
2022-11-12T13:28:18.869Z,10.30
2022-11-12T13:29:42.359Z,9.30
2022-11-12T13:31:28.547Z,9.43
2022-11-12T13:32:52.380Z,9.85
2022-11-12T13:34:32.780Z,7.85
2022-11-12T13:36:25.056Z,7.47
2022-11-12T13:37:54.587Z,9.32
2022-11-12T13:39:20.275Z,9.75
2022-11-12T13:40:57.945Z,8.90
2022-11-12T13:42:38.280Z,10.63
2022-11-12T13:44:03.889Z,9.45
2022-11-12T13:45:27.849Z,9.82
2022-11-12T13:46:52.640Z,9.57
2022-11-12T13:48:26.459Z,8.18
2022-11-12T13:49:49.033Z,8.27
2022-11-12T13:51:35.104Z,9.15
2022-11-12T13:52:56.978Z,9.18
2022-11-12T13:54:44.777Z,9.77
2022-11-12T13:56:06.762Z,9.18
2022-11-12T13:57:33.131Z,9.80
2022-11-12T13:58:55.980Z,8.07
2022-11-12T14:00:30.130Z,8.57
2022-11-12T14:01:52.493Z,8.85
2022-11-12T14:03:19.058Z,7.85
2022-11-12T14:04:40.649Z,9.07
2022-11-12T14:06:15.448Z,7.25
2022-11-12T14:08:18.151Z,7.47
2022-11-12T14:10:09.423Z,7.63
2022-11-12T14:11:54.463Z,9.00
2022-11-12T14:13:36.657Z,8.70
2022-11-12T14:15:26.443Z,8.68
2022-11-12T14:17:43.800Z,8.68
2022-11-12T14:19:45.016Z,8.85
2022-11-12T14:22:44.488Z,8.02
2022-11-12T14:24:11.115Z,8.60
2022-11-12T14:25:33.016Z,8.95
2022-11-12T14:26:54.274Z,7.93
2022-11-12T14:28:33.717Z,8.07
2022-11-12T14:30:24.401Z,8.25
2022-11-12T14:31:46.832Z,8.25
2022-11-12T14:33:10.917Z,7.80
2022-11-12T14:34:34.402Z,7.97
2022-11-12T14:36:13.741Z,8.43
2022-11-12T14:37:43.313Z,9.60
2022-11-12T14:39:06.501Z,9.95
2022-11-12T14:40:35.608Z,10.75
2022-11-12T14:42:00.048Z,10.57
2022-11-12T14:43:42.275Z,10.18
2022-11-12T14:45:03.885Z,10.27
2022-11-12T14:46:44.125Z,11.00
2022-11-12T14:48:09.678Z,10.15
2022-11-12T14:49:45.066Z,9.13
2022-11-12T14:51:11.147Z,10.27
2022-11-12T14:52:42.031Z,10.88
2022-11-12T14:54:08.668Z,11.32
2022-11-12T14:55:36.922Z,9.98
2022-11-12T14:57:01.283Z,10.32
2022-11-12T14:58:24.605Z,9.60
2022-11-12T14:59:46.396Z,10.23
2022-11-12T15:03:31.213Z,11.77
2022-11-12T15:05:04.899Z,10.63
2022-11-12T15:06:32.584Z,10.27
2022-11-12T15:08:06.026Z,9.27
2022-11-12T15:09:37.687Z,10.30
2022-11-12T15:11:21.442Z,9.85
2022-11-12T15:12:43.323Z,10.85
2022-11-12T15:14:04.642Z,10.32
2022-11-12T15:15:26.072Z,10.52
2022-11-12T15:16:47.923Z,10.52
2022-11-12T15:18:22.833Z,10.77
2022-11-12T15:19:44.427Z,11.25
2022-11-12T15:21:12.084Z,10.75
2022-11-12T15:22:34.649Z,10.85
2022-11-12T15:24:20.621Z,11.23
2022-11-12T15:25:42.832Z,11.20
2022-11-12T15:27:38.148Z,10.77
2022-11-12T15:29:31.696Z,10.85
2022-11-12T15:31:16.607Z,11.15
2022-11-12T15:32:38.143Z,12.55
2022-11-12T15:34:52.107Z,11.43
2022-11-12T15:36:20.624Z,11.95
2022-11-12T15:37:43.562Z,11.10
2022-11-12T15:39:14.418Z,10.65
2022-11-12T15:40:43.594Z,12.02
2022-11-12T15:42:17.771Z,12.05
2022-11-12T15:43:42.946Z,12.80
2022-11-12T15:45:19.989Z,15.55
2022-11-12T15:46:48.048Z,20.10
2022-11-12T15:48:12.649Z,20.20
2022-11-12T15:49:35.225Z,21.33
2022-11-12T15:50:57.055Z,19.02
2022-11-12T15:52:19.944Z,17.35
2022-11-12T15:53:41.629Z,19.90
2022-11-12T15:55:03.375Z,18.33
2022-11-12T15:56:24.849Z,15.00
2022-11-12T15:57:52.232Z,15.27
2022-11-12T15:59:17.467Z,13.63
2022-11-12T16:00:39.673Z,13.68
2022-11-12T16:02:01.122Z,13.45
2022-11-12T16:03:22.980Z,13.90
2022-11-12T16:04:44.708Z,15.07
2022-11-12T16:06:09.343Z,14.18
2022-11-12T16:07:31.339Z,15.50
2022-11-12T16:08:53.013Z,15.77
2022-11-12T16:10:17.548Z,16.92
2022-11-12T16:11:39.002Z,16.10
2022-11-12T16:13:04.180Z,17.40
2022-11-12T16:14:26.544Z,14.60
2022-11-12T16:15:51.569Z,15.30
2022-11-12T16:17:18.568Z,14.95
2022-11-12T16:18:39.712Z,14.45
2022-11-12T16:20:01.470Z,14.50
2022-11-12T16:21:23.225Z,15.40
2022-11-12T16:22:45.051Z,14.15
2022-11-12T16:24:07.405Z,13.68
2022-11-12T16:25:32.596Z,13.65
2022-11-12T16:26:57.670Z,15.07
2022-11-12T16:28:19.831Z,13.48
2022-11-12T16:29:41.725Z,14.15
2022-11-12T16:31:03.302Z,14.65
2022-11-12T16:32:24.900Z,13.23
2022-11-12T16:33:46.261Z,12.63
2022-11-12T16:35:08.185Z,12.45
2022-11-12T16:36:29.625Z,12.45
2022-11-12T16:37:54.661Z,10.70
2022-11-12T16:39:16.367Z,10.13
2022-11-12T16:40:38.333Z,10.25
2022-11-12T16:42:00.038Z,10.48
2022-11-12T16:43:21.611Z,11.25
2022-11-12T16:44:43.162Z,9.30
2022-11-12T16:46:29.160Z,9.73
2022-11-12T16:47:55.975Z,9.80
2022-11-12T16:49:17.736Z,10.65
2022-11-12T16:50:39.648Z,11.02
2022-11-12T16:52:01.039Z,11.75
2022-11-12T16:53:22.357Z,11.60
2022-11-12T16:54:44.080Z,11.82
2022-11-12T16:56:12.739Z,11.70
2022-11-12T16:57:34.504Z,12.90
2022-11-12T16:58:56.240Z,17.63
2022-11-12T17:00:19.541Z,17.48
2022-11-12T17:01:41.110Z,16.38
2022-11-12T17:03:02.675Z,15.38
2022-11-12T17:04:25.078Z,16.55
2022-11-12T17:05:52.664Z,15.32
2022-11-12T17:07:14.436Z,16.17
2022-11-12T17:08:36.314Z,17.05
2022-11-12T17:09:57.945Z,14.77
2022-11-12T17:11:19.347Z,14.80
2022-11-12T17:12:40.874Z,15.05
2022-11-12T17:14:02.868Z,22.88
2022-11-12T17:15:24.247Z,28.67
2022-11-12T17:16:46.451Z,29.80
2022-11-12T17:18:08.553Z,26.63
2022-11-12T17:19:30.165Z,25.80
2022-11-12T17:20:51.781Z,24.48
2022-11-12T17:22:13.196Z,21.33
2022-11-12T17:23:34.942Z,19.70
2022-11-12T17:24:56.216Z,18.70
2022-11-12T17:26:20.572Z,17.98
2022-11-12T17:27:42.358Z,18.67
2022-11-12T17:29:08.077Z,16.25
2022-11-12T17:30:29.947Z,17.48
2022-11-12T17:31:51.572Z,15.02
2022-11-12T17:33:13.083Z,11.70
2022-11-12T17:34:34.961Z,13.50
2022-11-12T17:36:03.668Z,16.02
2022-11-12T17:37:25.510Z,13.35
2022-11-12T17:38:47.049Z,17.17
2022-11-12T17:40:09.270Z,19.75
2022-11-12T17:41:31.113Z,16.40
2022-11-12T17:42:53.874Z,17.70
2022-11-12T17:44:18.377Z,17.08
2022-11-12T17:45:48.510Z,19.02
2022-11-12T17:47:10.028Z,17.83
2022-11-12T17:48:33.205Z,17.38
2022-11-12T17:49:54.637Z,13.48
2022-11-12T17:51:19.802Z,14.25
2022-11-12T17:52:41.384Z,14.40
2022-11-12T17:54:02.960Z,15.05
2022-11-12T17:55:24.331Z,14.48
2022-11-12T17:56:45.541Z,14.48
2022-11-12T17:58:07.004Z,14.13
2022-11-12T17:59:28.307Z,14.30
2022-11-12T18:00:51.821Z,13.30
2022-11-12T18:02:13.555Z,13.93
2022-11-12T18:03:42.035Z,13.90
2022-11-12T18:05:03.781Z,11.32
2022-11-12T18:06:32.703Z,12.27
2022-11-12T18:07:54.572Z,12.05
2022-11-12T18:09:16.295Z,12.63
2022-11-12T18:10:38.096Z,11.77
2022-11-12T18:11:59.834Z,11.45
2022-11-12T18:13:21.842Z,11.13
2022-11-12T18:14:43.376Z,11.52
2022-11-12T18:16:28.514Z,10.38
2022-11-12T18:17:50.285Z,11.13
2022-11-12T18:19:13.635Z,10.65
2022-11-12T18:20:36.916Z,11.15
2022-11-12T18:21:59.749Z,10.68
2022-11-12T18:23:21.348Z,10.80
2022-11-12T18:24:43.057Z,11.55
2022-11-12T18:26:04.619Z,11.35
2022-11-12T18:27:26.346Z,11.27
2022-11-12T18:28:55.389Z,11.02
2022-11-12T18:30:19.539Z,12.93
2022-11-12T18:31:41.499Z,12.13
2022-11-12T18:33:03.233Z,15.32
2022-11-12T18:34:25.068Z,14.95
2022-11-12T18:35:46.727Z,13.23
2022-11-12T18:37:08.818Z,15.48
2022-11-12T18:38:36.057Z,13.00
2022-11-12T18:39:57.807Z,11.70
2022-11-12T18:41:30.217Z,11.27
2022-11-12T18:42:51.695Z,9.45
2022-11-12T18:44:13.290Z,9.77
2022-11-12T18:45:34.487Z,10.68
2022-11-12T18:46:55.958Z,11.07
2022-11-12T18:48:17.239Z,10.77
2022-11-12T18:49:38.762Z,11.05
2022-11-12T18:51:10.029Z,10.82
2022-11-12T18:52:31.439Z,9.35
2022-11-12T18:53:52.945Z,9.93
2022-11-12T18:55:15.826Z,9.73
2022-11-12T18:56:38.489Z,10.27
2022-11-12T18:58:00.080Z,9.32
2022-11-12T18:59:24.100Z,9.55
2022-11-12T19:00:46.028Z,9.65
2022-11-12T19:02:11.369Z,8.65
2022-11-12T19:03:35.543Z,10.73
2022-11-12T19:04:57.015Z,10.70